sensor_id;sensor_type;location;lat;lon;timestamp;P1;durP1;ratioP1;P2;durP2;ratioP2
36629;SDS011;36256;42.154;23.002;2023-01-31T00:01:17;23.48;;;12.60;;
36629;SDS011;36256;42.154;23.002;2023-01-31T00:03:46;23.95;;;12.02;;
36629;SDS011;36256;42.154;23.002;2023-01-31T00:06:15;25.92;;;12.38;;
36629;SDS011;36256;42.154;23.002;2023-01-31T00:08:42;24.80;;;12.35;;
36629;SDS011;36256;42.154;23.002;2023-01-31T00:11:10;25.63;;;12.02;;
36629;SDS011;36256;42.154;23.002;2023-01-31T00:13:36;21.80;;;11.85;;
36629;SDS011;36256;42.154;23.002;2023-01-31T00:16:04;20.85;;;11.48;;
36629;SDS011;36256;42.154;23.002;2023-01-31T00:18:31;20.13;;;11.20;;
36629;SDS011;36256;42.154;23.002;2023-01-31T00:20:58;20.60;;;11.25;;
36629;SDS011;36256;42.154;23.002;2023-01-31T00:23:43;23.05;;;10.57;;
36629;SDS011;36256;42.154;23.002;2023-01-31T00:26:13;21.90;;;11.30;;
36629;SDS011;36256;42.154;23.002;2023-01-31T00:28:40;22.88;;;11.43;;
36629;SDS011;36256;42.154;23.002;2023-01-31T00:31:08;20.45;;;11.10;;
36629;SDS011;36256;42.154;23.002;2023-01-31T00:33:36;22.25;;;11.43;;
36629;SDS011;36256;42.154;23.002;2023-01-31T00:36:04;22.92;;;11.30;;
36629;SDS011;36256;42.154;23.002;2023-01-31T00:38:32;21.08;;;11.25;;
36629;SDS011;36256;42.154;23.002;2023-01-31T00:40:59;21.10;;;10.95;;
36629;SDS011;36256;42.154;23.002;2023-01-31T00:45:53;25.17;;;10.23;;
36629;SDS011;36256;42.154;23.002;2023-01-31T00:48:20;19.35;;;10.75;;
36629;SDS011;36256;42.154;23.002;2023-01-31T00:50:47;20.73;;;11.57;;
36629;SDS011;36256;42.154;23.002;2023-01-31T00:53:13;21.55;;;11.10;;
36629;SDS011;36256;42.154;23.002;2023-01-31T00:55:40;21.33;;;10.82;;
36629;SDS011;36256;42.154;23.002;2023-01-31T00:58:06;22.10;;;10.98;;
36629;SDS011;36256;42.154;23.002;2023-01-31T01:00:33;17.17;;;8.02;;
36629;SDS011;36256;42.154;23.002;2023-01-31T01:03:00;21.10;;;10.82;;
36629;SDS011;36256;42.154;23.002;2023-01-31T01:05:26;20.17;;;10.23;;
36629;SDS011;36256;42.154;23.002;2023-01-31T01:07:53;22.98;;;11.25;;
36629;SDS011;36256;42.154;23.002;2023-01-31T01:10:19;23.27;;;11.32;;
36629;SDS011;36256;42.154;23.002;2023-01-31T01:12:46;22.38;;;11.13;;
36629;SDS011;36256;42.154;23.002;2023-01-31T01:15:13;23.50;;;11.80;;
36629;SDS011;36256;42.154;23.002;2023-01-31T01:17:40;25.92;;;11.80;;
36629;SDS011;36256;42.154;23.002;2023-01-31T01:20:07;22.75;;;11.13;;
36629;SDS011;36256;42.154;23.002;2023-01-31T01:22:34;21.92;;;10.88;;
36629;SDS011;36256;42.154;23.002;2023-01-31T01:25:02;22.42;;;12.15;;
36629;SDS011;36256;42.154;23.002;2023-01-31T01:27:28;29.30;;;14.00;;
36629;SDS011;36256;42.154;23.002;2023-01-31T01:29:55;38.47;;;18.83;;
36629;SDS011;36256;42.154;23.002;2023-01-31T01:32:22;45.03;;;19.95;;
36629;SDS011;36256;42.154;23.002;2023-01-31T01:34:48;40.33;;;20.42;;
36629;SDS011;36256;42.154;23.002;2023-01-31T01:37:15;38.45;;;18.98;;
36629;SDS011;36256;42.154;23.002;2023-01-31T01:39:46;38.22;;;19.30;;
36629;SDS011;36256;42.154;23.002;2023-01-31T01:42:18;53.10;;;20.67;;
36629;SDS011;36256;42.154;23.002;2023-01-31T01:47:16;41.97;;;21.52;;
36629;SDS011;36256;42.154;23.002;2023-01-31T01:49:48;43.00;;;21.13;;
36629;SDS011;36256;42.154;23.002;2023-01-31T01:52:19;38.83;;;20.10;;
36629;SDS011;36256;42.154;23.002;2023-01-31T01:54:49;38.70;;;20.35;;
36629;SDS011;36256;42.154;23.002;2023-01-31T01:57:20;38.92;;;19.88;;
36629;SDS011;36256;42.154;23.002;2023-01-31T01:59:53;41.05;;;20.27;;
36629;SDS011;36256;42.154;23.002;2023-01-31T02:02:29;45.08;;;20.65;;
36629;SDS011;36256;42.154;23.002;2023-01-31T02:04:57;45.10;;;21.77;;
36629;SDS011;36256;42.154;23.002;2023-01-31T02:07:24;43.30;;;21.70;;
36629;SDS011;36256;42.154;23.002;2023-01-31T02:10:05;41.38;;;21.15;;
36629;SDS011;36256;42.154;23.002;2023-01-31T02:12:38;30.27;;;15.43;;
36629;SDS011;36256;42.154;23.002;2023-01-31T02:15:05;42.53;;;20.58;;
36629;SDS011;36256;42.154;23.002;2023-01-31T02:17:32;45.80;;;21.83;;
36629;SDS011;36256;42.154;23.002;2023-01-31T02:28:39;41.65;;;19.70;;
36629;SDS011;36256;42.154;23.002;2023-01-31T02:34:03;25.60;;;12.85;;
36629;SDS011;36256;42.154;23.002;2023-01-31T02:45:36;23.33;;;12.90;;
36629;SDS011;36256;42.154;23.002;2023-01-31T02:51:41;23.85;;;12.30;;
36629;SDS011;36256;42.154;23.002;2023-01-31T02:54:30;24.10;;;12.70;;
36629;SDS011;36256;42.154;23.002;2023-01-31T02:57:19;25.40;;;12.30;;
36629;SDS011;36256;42.154;23.002;2023-01-31T02:59:47;24.55;;;13.02;;
36629;SDS011;36256;42.154;23.002;2023-01-31T03:02:14;24.98;;;13.13;;
36629;SDS011;36256;42.154;23.002;2023-01-31T03:04:41;28.73;;;14.15;;
36629;SDS011;36256;42.154;23.002;2023-01-31T03:12:31;24.55;;;13.15;;
36629;SDS011;36256;42.154;23.002;2023-01-31T03:18:18;27.42;;;14.20;;
36629;SDS011;36256;42.154;23.002;2023-01-31T03:20:52;28.88;;;14.48;;
36629;SDS011;36256;42.154;23.002;2023-01-31T03:23:36;29.25;;;14.60;;
36629;SDS011;36256;42.154;23.002;2023-01-31T03:26:06;30.55;;;14.55;;
36629;SDS011;36256;42.154;23.002;2023-01-31T03:28:35;30.58;;;14.60;;
36629;SDS011;36256;42.154;23.002;2023-01-31T03:31:17;28.85;;;14.75;;
36629;SDS011;36256;42.154;23.002;2023-01-31T03:33:47;28.98;;;14.45;;
36629;SDS011;36256;42.154;23.002;2023-01-31T03:42:07;27.33;;;14.70;;
36629;SDS011;36256;42.154;23.002;2023-01-31T03:44:43;26.00;;;14.25;;
36629;SDS011;36256;42.154;23.002;2023-01-31T03:47:40;29.83;;;14.68;;
36629;SDS011;36256;42.154;23.002;2023-01-31T03:50:09;28.88;;;14.82;;
36629;SDS011;36256;42.154;23.002;2023-01-31T03:53:03;29.40;;;14.88;;
36629;SDS011;36256;42.154;23.002;2023-01-31T03:55:33;28.63;;;14.77;;
36629;SDS011;36256;42.154;23.002;2023-01-31T03:58:05;28.50;;;14.25;;
36629;SDS011;36256;42.154;23.002;2023-01-31T04:00:34;26.05;;;14.35;;
36629;SDS011;36256;42.154;23.002;2023-01-31T04:03:09;27.30;;;14.05;;
36629;SDS011;36256;42.154;23.002;2023-01-31T04:05:45;27.92;;;14.35;;
36629;SDS011;36256;42.154;23.002;2023-01-31T04:08:14;30.38;;;13.90;;
36629;SDS011;36256;42.154;23.002;2023-01-31T04:10:41;25.83;;;13.80;;
36629;SDS011;36256;42.154;23.002;2023-01-31T04:13:09;26.73;;;14.35;;
36629;SDS011;36256;42.154;23.002;2023-01-31T04:15:35;25.00;;;13.93;;
36629;SDS011;36256;42.154;23.002;2023-01-31T04:18:02;26.45;;;14.40;;
36629;SDS011;36256;42.154;23.002;2023-01-31T04:20:28;19.55;;;10.95;;
36629;SDS011;36256;42.154;23.002;2023-01-31T04:22:55;28.55;;;15.65;;
36629;SDS011;36256;42.154;23.002;2023-01-31T04:25:22;30.67;;;15.60;;
36629;SDS011;36256;42.154;23.002;2023-01-31T04:27:49;23.63;;;13.55;;
36629;SDS011;36256;42.154;23.002;2023-01-31T04:30:16;26.48;;;13.40;;
36629;SDS011;36256;42.154;23.002;2023-01-31T04:32:43;24.23;;;12.40;;
36629;SDS011;36256;42.154;23.002;2023-01-31T04:35:10;24.17;;;12.95;;
36629;SDS011;36256;42.154;23.002;2023-01-31T04:37:36;20.27;;;11.60;;
36629;SDS011;36256;42.154;23.002;2023-01-31T04:40:03;14.77;;;8.23;;
36629;SDS011;36256;42.154;23.002;2023-01-31T04:42:31;21.20;;;11.60;;
36629;SDS011;36256;42.154;23.002;2023-01-31T04:44:58;25.48;;;11.77;;
36629;SDS011;36256;42.154;23.002;2023-01-31T04:47:25;18.98;;;10.32;;
36629;SDS011;36256;42.154;23.002;2023-01-31T04:49:51;19.55;;;10.95;;
36629;SDS011;36256;42.154;23.002;2023-01-31T04:52:18;24.15;;;10.35;;
36629;SDS011;36256;42.154;23.002;2023-01-31T04:54:44;21.30;;;11.15;;
36629;SDS011;36256;42.154;23.002;2023-01-31T04:57:11;18.13;;;10.13;;
36629;SDS011;36256;42.154;23.002;2023-01-31T04:59:37;30.10;;;16.70;;
36629;SDS011;36256;42.154;23.002;2023-01-31T05:02:04;22.08;;;12.75;;
36629;SDS011;36256;42.154;23.002;2023-01-31T05:04:31;32.38;;;16.50;;
36629;SDS011;36256;42.154;23.002;2023-01-31T05:06:58;30.05;;;16.17;;
36629;SDS011;36256;42.154;23.002;2023-01-31T05:09:24;33.88;;;18.45;;
36629;SDS011;36256;42.154;23.002;2023-01-31T05:11:51;25.77;;;14.30;;
36629;SDS011;36256;42.154;23.002;2023-01-31T05:14:18;21.42;;;11.93;;
36629;SDS011;36256;42.154;23.002;2023-01-31T05:16:46;24.90;;;11.90;;
36629;SDS011;36256;42.154;23.002;2023-01-31T05:19:13;20.10;;;10.75;;
36629;SDS011;36256;42.154;23.002;2023-01-31T05:24:28;23.17;;;10.65;;
36629;SDS011;36256;42.154;23.002;2023-01-31T05:26:58;16.77;;;9.15;;
36629;SDS011;36256;42.154;23.002;2023-01-31T05:29:27;16.17;;;8.48;;
36629;SDS011;36256;42.154;23.002;2023-01-31T05:31:56;16.05;;;9.35;;
36629;SDS011;36256;42.154;23.002;2023-01-31T05:34:25;19.58;;;9.48;;
36629;SDS011;36256;42.154;23.002;2023-01-31T05:36:54;15.48;;;8.80;;
36629;SDS011;36256;42.154;23.002;2023-01-31T05:41:48;18.23;;;9.15;;
36629;SDS011;36256;42.154;23.002;2023-01-31T05:44:14;20.15;;;8.82;;
36629;SDS011;36256;42.154;23.002;2023-01-31T05:46:41;19.55;;;9.38;;
36629;SDS011;36256;42.154;23.002;2023-01-31T05:49:08;29.85;;;9.35;;
36629;SDS011;36256;42.154;23.002;2023-01-31T05:51:35;16.83;;;8.93;;
36629;SDS011;36256;42.154;23.002;2023-01-31T05:54:01;18.80;;;8.68;;
36629;SDS011;36256;42.154;23.002;2023-01-31T05:56:28;19.05;;;9.73;;
36629;SDS011;36256;42.154;23.002;2023-01-31T05:58:54;11.75;;;6.57;;
36629;SDS011;36256;42.154;23.002;2023-01-31T06:01:23;18.73;;;9.10;;
36629;SDS011;36256;42.154;23.002;2023-01-31T06:03:51;18.85;;;8.68;;
36629;SDS011;36256;42.154;23.002;2023-01-31T06:06:18;17.30;;;9.20;;
36629;SDS011;36256;42.154;23.002;2023-01-31T06:08:46;22.10;;;9.20;;
36629;SDS011;36256;42.154;23.002;2023-01-31T06:11:13;21.30;;;9.60;;
36629;SDS011;36256;42.154;23.002;2023-01-31T06:13:40;20.40;;;9.45;;
36629;SDS011;36256;42.154;23.002;2023-01-31T06:16:11;26.58;;;9.18;;
36629;SDS011;36256;42.154;23.002;2023-01-31T06:18:38;23.05;;;9.32;;
36629;SDS011;36256;42.154;23.002;2023-01-31T06:21:04;17.52;;;6.40;;
36629;SDS011;36256;42.154;23.002;2023-01-31T06:23:31;18.88;;;7.47;;
36629;SDS011;36256;42.154;23.002;2023-01-31T06:25:59;29.00;;;10.20;;
36629;SDS011;36256;42.154;23.002;2023-01-31T06:28:26;25.80;;;9.40;;
36629;SDS011;36256;42.154;23.002;2023-01-31T06:30:53;29.63;;;9.52;;
36629;SDS011;36256;42.154;23.002;2023-01-31T06:33:20;23.98;;;9.20;;
36629;SDS011;36256;42.154;23.002;2023-01-31T06:35:59;18.67;;;7.13;;
36629;SDS011;36256;42.154;23.002;2023-01-31T06:38:26;21.70;;;8.05;;
36629;SDS011;36256;42.154;23.002;2023-01-31T06:40:53;25.25;;;8.77;;
36629;SDS011;36256;42.154;23.002;2023-01-31T06:43:20;29.67;;;10.30;;
36629;SDS011;36256;42.154;23.002;2023-01-31T06:45:47;26.77;;;9.13;;
36629;SDS011;36256;42.154;23.002;2023-01-31T06:48:15;21.83;;;9.05;;
36629;SDS011;36256;42.154;23.002;2023-01-31T06:50:42;19.85;;;10.73;;
36629;SDS011;36256;42.154;23.002;2023-01-31T06:53:09;18.98;;;8.70;;
36629;SDS011;36256;42.154;23.002;2023-01-31T06:55:36;48.30;;;11.68;;
36629;SDS011;36256;42.154;23.002;2023-01-31T06:58:04;19.42;;;10.00;;
36629;SDS011;36256;42.154;23.002;2023-01-31T07:00:30;13.80;;;7.38;;
36629;SDS011;36256;42.154;23.002;2023-01-31T07:02:57;20.35;;;8.63;;
36629;SDS011;36256;42.154;23.002;2023-01-31T07:05:24;12.23;;;6.32;;
36629;SDS011;36256;42.154;23.002;2023-01-31T07:07:51;16.15;;;7.72;;
36629;SDS011;36256;42.154;23.002;2023-01-31T07:10:17;16.63;;;8.50;;
36629;SDS011;36256;42.154;23.002;2023-01-31T07:12:44;20.02;;;8.60;;
36629;SDS011;36256;42.154;23.002;2023-01-31T07:15:11;15.40;;;7.95;;
36629;SDS011;36256;42.154;23.002;2023-01-31T07:17:37;20.90;;;9.07;;
36629;SDS011;36256;42.154;23.002;2023-01-31T07:20:04;35.33;;;8.02;;
36629;SDS011;36256;42.154;23.002;2023-01-31T07:22:31;21.33;;;8.10;;
36629;SDS011;36256;42.154;23.002;2023-01-31T07:24:58;22.10;;;8.05;;
36629;SDS011;36256;42.154;23.002;2023-01-31T07:27:25;14.88;;;7.65;;
36629;SDS011;36256;42.154;23.002;2023-01-31T07:29:52;18.75;;;8.40;;
36629;SDS011;36256;42.154;23.002;2023-01-31T07:32:19;21.42;;;8.00;;
36629;SDS011;36256;42.154;23.002;2023-01-31T07:34:45;18.77;;;7.82;;
36629;SDS011;36256;42.154;23.002;2023-01-31T07:37:12;17.83;;;8.50;;
36629;SDS011;36256;42.154;23.002;2023-01-31T07:39:38;25.65;;;8.40;;
36629;SDS011;36256;42.154;23.002;2023-01-31T07:42:05;20.50;;;8.15;;
36629;SDS011;36256;42.154;23.002;2023-01-31T07:44:31;11.38;;;6.05;;
36629;SDS011;36256;42.154;23.002;2023-01-31T07:46:58;17.75;;;8.02;;
36629;SDS011;36256;42.154;23.002;2023-01-31T07:49:25;11.93;;;5.80;;
36629;SDS011;36256;42.154;23.002;2023-01-31T07:51:51;15.95;;;7.30;;
36629;SDS011;36256;42.154;23.002;2023-01-31T07:54:18;17.60;;;7.68;;
36629;SDS011;36256;42.154;23.002;2023-01-31T07:56:45;18.25;;;7.63;;
36629;SDS011;36256;42.154;23.002;2023-01-31T07:59:12;17.75;;;7.13;;
36629;SDS011;36256;42.154;23.002;2023-01-31T08:01:39;11.13;;;6.32;;
36629;SDS011;36256;42.154;23.002;2023-01-31T08:04:24;14.55;;;7.07;;
36629;SDS011;36256;42.154;23.002;2023-01-31T08:06:52;18.52;;;8.02;;
36629;SDS011;36256;42.154;23.002;2023-01-31T08:09:21;14.93;;;6.85;;
36629;SDS011;36256;42.154;23.002;2023-01-31T08:11:48;14.43;;;7.15;;
36629;SDS011;36256;42.154;23.002;2023-01-31T08:14:15;15.77;;;6.80;;
36629;SDS011;36256;42.154;23.002;2023-01-31T08:16:41;16.35;;;7.25;;
36629;SDS011;36256;42.154;23.002;2023-01-31T08:19:08;14.68;;;6.57;;
36629;SDS011;36256;42.154;23.002;2023-01-31T08:21:34;9.88;;;5.13;;
36629;SDS011;36256;42.154;23.002;2023-01-31T08:24:01;21.63;;;7.03;;
36629;SDS011;36256;42.154;23.002;2023-01-31T08:26:28;16.67;;;6.90;;
36629;SDS011;36256;42.154;23.002;2023-01-31T08:28:55;16.83;;;7.25;;
36629;SDS011;36256;42.154;23.002;2023-01-31T08:33:50;12.55;;;5.97;;
36629;SDS011;36256;42.154;23.002;2023-01-31T08:36:19;12.02;;;6.00;;
36629;SDS011;36256;42.154;23.002;2023-01-31T08:38:54;12.73;;;6.50;;
36629;SDS011;36256;42.154;23.002;2023-01-31T08:41:22;22.55;;;5.85;;
36629;SDS011;36256;42.154;23.002;2023-01-31T08:43:50;10.35;;;6.05;;
36629;SDS011;36256;42.154;23.002;2023-01-31T08:46:23;16.67;;;6.55;;
36629;SDS011;36256;42.154;23.002;2023-01-31T08:48:51;12.95;;;5.80;;
36629;SDS011;36256;42.154;23.002;2023-01-31T08:51:18;13.15;;;6.15;;
36629;SDS011;36256;42.154;23.002;2023-01-31T08:53:45;23.05;;;7.22;;
36629;SDS011;36256;42.154;23.002;2023-01-31T08:56:12;20.83;;;9.50;;
36629;SDS011;36256;42.154;23.002;2023-01-31T08:58:40;16.90;;;8.57;;
36629;SDS011;36256;42.154;23.002;2023-01-31T09:01:12;20.77;;;7.93;;
36629;SDS011;36256;42.154;23.002;2023-01-31T09:03:40;22.17;;;6.75;;
36629;SDS011;36256;42.154;23.002;2023-01-31T09:06:14;20.45;;;6.82;;
36629;SDS011;36256;42.154;23.002;2023-01-31T09:08:42;16.90;;;6.28;;
36629;SDS011;36256;42.154;23.002;2023-01-31T09:11:09;12.93;;;5.82;;
36629;SDS011;36256;42.154;23.002;2023-01-31T09:13:35;12.77;;;6.20;;
36629;SDS011;36256;42.154;23.002;2023-01-31T09:16:06;16.00;;;5.78;;
36629;SDS011;36256;42.154;23.002;2023-01-31T09:18:34;14.43;;;5.78;;
36629;SDS011;36256;42.154;23.002;2023-01-31T09:21:06;17.10;;;6.63;;
36629;SDS011;36256;42.154;23.002;2023-01-31T09:23:34;11.75;;;5.47;;
36629;SDS011;36256;42.154;23.002;2023-01-31T09:26:01;12.68;;;5.60;;
36629;SDS011;36256;42.154;23.002;2023-01-31T09:28:29;13.85;;;4.93;;
36629;SDS011;36256;42.154;23.002;2023-01-31T09:31:00;15.93;;;5.38;;
36629;SDS011;36256;42.154;23.002;2023-01-31T09:33:31;18.48;;;5.93;;
36629;SDS011;36256;42.154;23.002;2023-01-31T09:35:59;16.85;;;6.00;;
36629;SDS011;36256;42.154;23.002;2023-01-31T09:38:27;15.27;;;5.60;;
36629;SDS011;36256;42.154;23.002;2023-01-31T09:40:55;28.88;;;7.47;;
36629;SDS011;36256;42.154;23.002;2023-01-31T09:43:25;25.10;;;7.95;;
36629;SDS011;36256;42.154;23.002;2023-01-31T09:46:01;15.95;;;6.05;;
36629;SDS011;36256;42.154;23.002;2023-01-31T09:48:32;13.10;;;5.35;;
36629;SDS011;36256;42.154;23.002;2023-01-31T09:51:02;15.57;;;5.15;;
36629;SDS011;36256;42.154;23.002;2023-01-31T09:53:34;8.45;;;4.60;;
36629;SDS011;36256;42.154;23.002;2023-01-31T10:04:19;11.15;;;6.97;;
36629;SDS011;36256;42.154;23.002;2023-01-31T10:12:42;7.20;;;4.45;;
36629;SDS011;36256;42.154;23.002;2023-01-31T10:17:49;6.93;;;4.53;;
36629;SDS011;36256;42.154;23.002;2023-01-31T10:20:42;7.47;;;4.38;;
36629;SDS011;36256;42.154;23.002;2023-01-31T10:26:23;7.65;;;4.43;;
36629;SDS011;36256;42.154;23.002;2023-01-31T10:29:05;10.35;;;4.32;;
36629;SDS011;36256;42.154;23.002;2023-01-31T10:31:52;5.97;;;3.80;;
36629;SDS011;36256;42.154;23.002;2023-01-31T10:40:40;8.60;;;3.25;;
36629;SDS011;36256;42.154;23.002;2023-01-31T10:43:07;5.10;;;3.60;;
36629;SDS011;36256;42.154;23.002;2023-01-31T10:45:41;22.73;;;11.30;;
36629;SDS011;36256;42.154;23.002;2023-01-31T10:56:35;10.93;;;7.45;;
36629;SDS011;36256;42.154;23.002;2023-01-31T10:59:10;15.10;;;8.10;;
36629;SDS011;36256;42.154;23.002;2023-01-31T11:01:49;13.10;;;7.53;;
36629;SDS011;36256;42.154;23.002;2023-01-31T11:04:37;9.30;;;5.75;;
36629;SDS011;36256;42.154;23.002;2023-01-31T11:07:05;8.85;;;6.10;;
36629;SDS011;36256;42.154;23.002;2023-01-31T11:09:33;9.63;;;5.93;;
36629;SDS011;36256;42.154;23.002;2023-01-31T11:12:05;6.97;;;4.38;;
36629;SDS011;36256;42.154;23.002;2023-01-31T11:14:33;6.57;;;4.28;;
36629;SDS011;36256;42.154;23.002;2023-01-31T11:22:20;6.50;;;4.30;;
36629;SDS011;36256;42.154;23.002;2023-01-31T11:24:50;9.95;;;6.25;;
36629;SDS011;36256;42.154;23.002;2023-01-31T11:27:23;5.55;;;3.88;;
36629;SDS011;36256;42.154;23.002;2023-01-31T11:29:53;6.20;;;3.95;;
36629;SDS011;36256;42.154;23.002;2023-01-31T11:32:29;5.72;;;3.80;;
36629;SDS011;36256;42.154;23.002;2023-01-31T11:35:01;7.97;;;4.32;;
36629;SDS011;36256;42.154;23.002;2023-01-31T11:40:31;10.32;;;5.88;;
36629;SDS011;36256;42.154;23.002;2023-01-31T11:42:59;9.25;;;5.40;;
36629;SDS011;36256;42.154;23.002;2023-01-31T11:45:32;8.40;;;4.45;;
36629;SDS011;36256;42.154;23.002;2023-01-31T11:48:05;8.85;;;5.28;;
36629;SDS011;36256;42.154;23.002;2023-01-31T11:50:38;5.53;;;3.63;;
36629;SDS011;36256;42.154;23.002;2023-01-31T11:53:16;5.28;;;3.70;;
36629;SDS011;36256;42.154;23.002;2023-01-31T11:55:50;21.08;;;11.13;;
36629;SDS011;36256;42.154;23.002;2023-01-31T12:00:52;12.02;;;6.50;;
36629;SDS011;36256;42.154;23.002;2023-01-31T12:03:22;19.75;;;5.30;;
36629;SDS011;36256;42.154;23.002;2023-01-31T12:05:50;23.60;;;6.50;;
36629;SDS011;36256;42.154;23.002;2023-01-31T12:10:56;22.65;;;7.72;;
36629;SDS011;36256;42.154;23.002;2023-01-31T12:13:24;30.83;;;12.35;;
36629;SDS011;36256;42.154;23.002;2023-01-31T12:15:52;21.55;;;8.57;;
36629;SDS011;36256;42.154;23.002;2023-01-31T12:49:45;7.80;;;5.40;;
36629;SDS011;36256;42.154;23.002;2023-01-31T13:00:05;12.75;;;7.15;;
36629;SDS011;36256;42.154;23.002;2023-01-31T13:05:44;13.40;;;6.18;;
36629;SDS011;36256;42.154;23.002;2023-01-31T13:08:17;7.53;;;3.92;;
36629;SDS011;36256;42.154;23.002;2023-01-31T13:10:52;11.30;;;5.55;;
36629;SDS011;36256;42.154;23.002;2023-01-31T13:13:27;4.50;;;3.20;;
36629;SDS011;36256;42.154;23.002;2023-01-31T13:15:58;3.80;;;2.78;;
36629;SDS011;36256;42.154;23.002;2023-01-31T13:18:31;5.28;;;3.20;;
36629;SDS011;36256;42.154;23.002;2023-01-31T13:21:03;3.15;;;2.28;;
36629;SDS011;36256;42.154;23.002;2023-01-31T13:23:40;2.90;;;2.20;;
36629;SDS011;36256;42.154;23.002;2023-01-31T13:28:50;4.00;;;2.42;;
36629;SDS011;36256;42.154;23.002;2023-01-31T13:31:31;3.08;;;2.55;;
36629;SDS011;36256;42.154;23.002;2023-01-31T13:34:09;3.40;;;2.40;;
36629;SDS011;36256;42.154;23.002;2023-01-31T13:36:46;12.35;;;6.40;;
36629;SDS011;36256;42.154;23.002;2023-01-31T13:39:22;7.07;;;4.18;;
36629;SDS011;36256;42.154;23.002;2023-01-31T13:41:52;5.18;;;3.22;;
36629;SDS011;36256;42.154;23.002;2023-01-31T13:44:19;17.42;;;8.65;;
36629;SDS011;36256;42.154;23.002;2023-01-31T13:47:02;17.58;;;9.18;;
36629;SDS011;36256;42.154;23.002;2023-01-31T13:49:38;7.45;;;4.13;;
36629;SDS011;36256;42.154;23.002;2023-01-31T13:52:54;9.68;;;4.97;;
36629;SDS011;36256;42.154;23.002;2023-01-31T13:55:47;13.75;;;6.10;;
36629;SDS011;36256;42.154;23.002;2023-01-31T13:58:13;5.97;;;3.83;;
36629;SDS011;36256;42.154;23.002;2023-01-31T14:00:41;14.15;;;8.80;;
36629;SDS011;36256;42.154;23.002;2023-01-31T14:03:11;11.80;;;7.50;;
36629;SDS011;36256;42.154;23.002;2023-01-31T14:11:31;2.75;;;2.20;;
36629;SDS011;36256;42.154;23.002;2023-01-31T14:16:38;3.05;;;2.30;;
36629;SDS011;36256;42.154;23.002;2023-01-31T14:24:20;3.00;;;2.00;;
36629;SDS011;36256;42.154;23.002;2023-01-31T14:27:11;8.85;;;3.65;;
36629;SDS011;36256;42.154;23.002;2023-01-31T14:29:43;4.43;;;2.55;;
36629;SDS011;36256;42.154;23.002;2023-01-31T14:32:15;4.95;;;3.03;;
36629;SDS011;36256;42.154;23.002;2023-01-31T14:34:55;5.22;;;2.80;;
36629;SDS011;36256;42.154;23.002;2023-01-31T14:37:29;4.43;;;2.40;;
36629;SDS011;36256;42.154;23.002;2023-01-31T14:40:26;5.82;;;2.33;;
36629;SDS011;36256;42.154;23.002;2023-01-31T14:42:58;5.07;;;3.17;;
36629;SDS011;36256;42.154;23.002;2023-01-31T15:01:58;4.88;;;3.63;;
36629;SDS011;36256;42.154;23.002;2023-01-31T15:04:28;6.68;;;3.55;;
36629;SDS011;36256;42.154;23.002;2023-01-31T15:06:54;9.98;;;6.55;;
36629;SDS011;36256;42.154;23.002;2023-01-31T15:11:53;19.58;;;11.27;;
36629;SDS011;36256;42.154;23.002;2023-01-31T15:14:55;20.73;;;11.73;;
36629;SDS011;36256;42.154;23.002;2023-01-31T15:17:21;16.60;;;8.13;;
36629;SDS011;36256;42.154;23.002;2023-01-31T15:22:43;5.82;;;3.88;;
36629;SDS011;36256;42.154;23.002;2023-01-31T15:25:32;4.22;;;2.78;;
36629;SDS011;36256;42.154;23.002;2023-01-31T15:28:05;6.20;;;3.75;;
36629;SDS011;36256;42.154;23.002;2023-01-31T15:30:34;8.98;;;5.00;;
36629;SDS011;36256;42.154;23.002;2023-01-31T15:33:03;5.60;;;3.47;;
36629;SDS011;36256;42.154;23.002;2023-01-31T15:36:03;5.53;;;3.22;;
36629;SDS011;36256;42.154;23.002;2023-01-31T15:38:37;4.93;;;2.92;;
36629;SDS011;36256;42.154;23.002;2023-01-31T15:41:19;4.15;;;2.08;;
36629;SDS011;36256;42.154;23.002;2023-01-31T15:43:54;4.53;;;2.40;;
36629;SDS011;36256;42.154;23.002;2023-01-31T15:46:26;43.67;;;5.03;;
36629;SDS011;36256;42.154;23.002;2023-01-31T15:48:55;8.13;;;2.65;;
36629;SDS011;36256;42.154;23.002;2023-01-31T15:51:22;2.58;;;1.98;;
36629;SDS011;36256;42.154;23.002;2023-01-31T15:53:58;8.45;;;2.70;;
36629;SDS011;36256;42.154;23.002;2023-01-31T15:56:32;3.92;;;2.70;;
36629;SDS011;36256;42.154;23.002;2023-01-31T15:59:00;3.60;;;2.30;;
36629;SDS011;36256;42.154;23.002;2023-01-31T16:01:35;4.40;;;2.50;;
36629;SDS011;36256;42.154;23.002;2023-01-31T16:04:02;5.78;;;2.70;;
36629;SDS011;36256;42.154;23.002;2023-01-31T16:06:33;6.15;;;3.58;;
36629;SDS011;36256;42.154;23.002;2023-01-31T16:09:04;6.80;;;3.85;;
36629;SDS011;36256;42.154;23.002;2023-01-31T16:11:32;119.93;;;48.70;;
36629;SDS011;36256;42.154;23.002;2023-01-31T16:14:01;16.33;;;7.43;;
36629;SDS011;36256;42.154;23.002;2023-01-31T16:16:32;39.05;;;15.52;;
36629;SDS011;36256;42.154;23.002;2023-01-31T16:19:00;13.75;;;6.60;;
36629;SDS011;36256;42.154;23.002;2023-01-31T16:24:13;5.93;;;3.90;;
36629;SDS011;36256;42.154;23.002;2023-01-31T16:29:41;6.88;;;3.40;;
36629;SDS011;36256;42.154;23.002;2023-01-31T16:32:22;9.02;;;4.40;;
36629;SDS011;36256;42.154;23.002;2023-01-31T16:37:38;12.15;;;7.57;;
36629;SDS011;36256;42.154;23.002;2023-01-31T16:43:22;7.75;;;5.55;;
36629;SDS011;36256;42.154;23.002;2023-01-31T16:48:27;9.40;;;6.43;;
36629;SDS011;36256;42.154;23.002;2023-01-31T16:50:58;10.35;;;5.70;;
36629;SDS011;36256;42.154;23.002;2023-01-31T16:53:27;10.20;;;6.57;;
36629;SDS011;36256;42.154;23.002;2023-01-31T17:01:12;15.90;;;7.28;;
36629;SDS011;36256;42.154;23.002;2023-01-31T17:03:41;27.63;;;11.68;;
36629;SDS011;36256;42.154;23.002;2023-01-31T17:06:09;16.63;;;9.80;;
36629;SDS011;36256;42.154;23.002;2023-01-31T17:08:44;10.07;;;6.32;;
36629;SDS011;36256;42.154;23.002;2023-01-31T17:11:11;16.75;;;8.05;;
36629;SDS011;36256;42.154;23.002;2023-01-31T17:13:48;14.45;;;8.68;;
36629;SDS011;36256;42.154;23.002;2023-01-31T17:16:17;15.45;;;10.02;;
36629;SDS011;36256;42.154;23.002;2023-01-31T17:18:53;15.80;;;9.48;;
36629;SDS011;36256;42.154;23.002;2023-01-31T17:21:21;13.05;;;8.93;;
36629;SDS011;36256;42.154;23.002;2023-01-31T17:23:49;14.00;;;8.63;;
36629;SDS011;36256;42.154;23.002;2023-01-31T17:26:17;17.33;;;9.68;;
36629;SDS011;36256;42.154;23.002;2023-01-31T17:28:46;15.02;;;8.65;;
36629;SDS011;36256;42.154;23.002;2023-01-31T17:31:26;14.07;;;8.18;;
36629;SDS011;36256;42.154;23.002;2023-01-31T17:33:55;17.92;;;9.98;;
36629;SDS011;36256;42.154;23.002;2023-01-31T17:36:21;19.17;;;10.93;;
36629;SDS011;36256;42.154;23.002;2023-01-31T17:38:48;17.02;;;10.70;;
36629;SDS011;36256;42.154;23.002;2023-01-31T17:41:18;18.35;;;10.68;;
36629;SDS011;36256;42.154;23.002;2023-01-31T17:43:46;14.63;;;9.70;;
36629;SDS011;36256;42.154;23.002;2023-01-31T17:46:13;15.25;;;7.88;;
36629;SDS011;36256;42.154;23.002;2023-01-31T17:48:42;12.30;;;8.20;;
36629;SDS011;36256;42.154;23.002;2023-01-31T17:51:09;16.40;;;9.07;;
36629;SDS011;36256;42.154;23.002;2023-01-31T17:53:37;25.45;;;13.10;;
36629;SDS011;36256;42.154;23.002;2023-01-31T17:56:14;53.70;;;22.98;;